createdAt,value
2022-12-04T00:01:29.577Z,13.70
2022-12-04T00:03:59.461Z,13.30
2022-12-04T00:06:29.236Z,13.75
2022-12-04T00:08:58.919Z,13.82
2022-12-04T00:11:29.759Z,13.32
2022-12-04T00:14:03.122Z,13.93
2022-12-04T00:16:36.433Z,12.60
2022-12-04T00:19:05.291Z,12.63
2022-12-04T00:21:33.794Z,13.43
2022-12-04T00:24:02.152Z,12.95
2022-12-04T00:26:31.736Z,13.88
2022-12-04T00:29:00.238Z,13.45
2022-12-04T00:31:30.326Z,12.90
2022-12-04T00:34:00.773Z,12.85
2022-12-04T00:36:31.169Z,13.20
2022-12-04T00:39:00.870Z,14.80
2022-12-04T00:41:30.958Z,13.57
2022-12-04T00:43:59.296Z,13.60
2022-12-04T00:46:27.869Z,13.55
2022-12-04T00:48:56.239Z,13.52
2022-12-04T00:51:26.758Z,12.80
2022-12-04T00:53:55.140Z,13.43
2022-12-04T00:56:25.848Z,13.65
2022-12-04T00:58:54.761Z,15.32
2022-12-04T01:01:24.427Z,14.13
2022-12-04T01:03:53.093Z,13.88
2022-12-04T01:06:24.020Z,13.37
2022-12-04T01:08:55.090Z,14.05
2022-12-04T01:11:25.111Z,13.45
2022-12-04T01:13:53.552Z,11.70
2022-12-04T01:16:24.461Z,12.70
2022-12-04T01:18:52.749Z,12.32
2022-12-04T01:21:21.014Z,12.30
2022-12-04T01:23:49.338Z,11.93
2022-12-04T01:26:19.000Z,12.93
2022-12-04T01:28:47.142Z,13.02
2022-12-04T01:31:17.263Z,12.50
2022-12-04T01:33:46.029Z,12.10
2022-12-04T01:36:16.551Z,12.20
2022-12-04T01:38:45.702Z,12.07
2022-12-04T01:41:15.747Z,12.40
2022-12-04T01:43:45.342Z,11.13
2022-12-04T01:46:13.722Z,11.80
2022-12-04T01:48:45.315Z,12.30
2022-12-04T01:51:17.928Z,11.88
2022-12-04T01:53:52.700Z,11.40
2022-12-04T01:56:23.069Z,10.93
2022-12-04T01:58:55.558Z,10.68
2022-12-04T02:01:24.531Z,11.95
2022-12-04T02:03:52.807Z,11.10
2022-12-04T02:06:21.011Z,11.63
2022-12-04T02:08:49.269Z,11.52
2022-12-04T02:11:28.178Z,11.43
2022-12-04T02:14:05.425Z,9.98
2022-12-04T02:16:40.152Z,11.20
2022-12-04T02:19:25.014Z,11.85
2022-12-04T02:21:56.562Z,11.00
2022-12-04T02:24:48.276Z,11.10
2022-12-04T02:27:31.769Z,10.80
2022-12-04T02:30:06.468Z,11.20
2022-12-04T02:32:43.513Z,10.20
2022-12-04T02:35:17.089Z,10.15
2022-12-04T02:37:48.744Z,10.70
2022-12-04T02:40:25.282Z,10.73
2022-12-04T02:42:59.676Z,10.88
2022-12-04T02:45:33.433Z,9.83
2022-12-04T02:48:04.232Z,9.60
2022-12-04T02:50:36.345Z,10.38
2022-12-04T02:53:09.825Z,10.30
2022-12-04T02:55:43.454Z,10.07
2022-12-04T02:58:17.254Z,10.27
2022-12-04T03:00:49.315Z,9.60
2022-12-04T03:03:22.833Z,10.48
2022-12-04T03:05:57.150Z,9.93
2022-12-04T03:08:32.071Z,10.13
2022-12-04T03:11:02.624Z,9.77
2022-12-04T03:13:37.115Z,9.70
2022-12-04T03:16:10.818Z,9.70
2022-12-04T03:18:44.531Z,9.87
2022-12-04T03:21:18.182Z,9.73
2022-12-04T03:23:51.343Z,9.98
2022-12-04T03:26:26.071Z,9.83
2022-12-04T03:28:58.898Z,9.27
2022-12-04T03:31:36.391Z,9.63
2022-12-04T03:34:07.138Z,10.38
2022-12-04T03:36:43.975Z,10.82
2022-12-04T03:39:20.043Z,10.30
2022-12-04T03:41:56.571Z,10.57
2022-12-04T03:44:28.550Z,9.80
2022-12-04T03:47:04.877Z,10.25
2022-12-04T03:49:40.359Z,9.70
2022-12-04T03:52:13.762Z,8.93
2022-12-04T03:54:48.041Z,8.90
2022-12-04T03:57:19.203Z,10.07
2022-12-04T03:59:55.859Z,9.85
2022-12-04T04:02:29.721Z,9.52
2022-12-04T04:05:01.313Z,9.98
2022-12-04T04:07:35.706Z,9.90
2022-12-04T04:10:08.766Z,10.07
2022-12-04T04:12:40.932Z,9.80
2022-12-04T04:15:30.286Z,9.27
2022-12-04T04:18:20.005Z,9.30
2022-12-04T04:21:08.987Z,9.45
2022-12-04T04:23:59.780Z,9.77
2022-12-04T04:26:32.467Z,9.43
2022-12-04T04:29:00.850Z,10.07
2022-12-04T04:31:34.406Z,9.10
2022-12-04T04:34:12.604Z,9.82
2022-12-04T04:36:47.813Z,8.95
2022-12-04T04:39:24.686Z,10.70
2022-12-04T04:41:58.573Z,8.77
2022-12-04T04:44:34.503Z,10.30
2022-12-04T04:47:07.277Z,9.47
2022-12-04T04:49:38.387Z,9.82
2022-12-04T04:52:06.698Z,10.38
2022-12-04T04:54:36.658Z,10.35
2022-12-04T04:57:04.963Z,9.05
2022-12-04T04:59:34.568Z,8.88
2022-12-04T05:02:03.077Z,9.65
2022-12-04T05:04:31.398Z,8.45
2022-12-04T05:07:00.986Z,9.27
2022-12-04T05:09:29.158Z,9.30
2022-12-04T05:11:57.597Z,9.25
2022-12-04T05:14:25.789Z,9.02
2022-12-04T05:16:54.259Z,9.20
2022-12-04T05:19:39.977Z,8.60
2022-12-04T05:22:09.855Z,8.75
2022-12-04T05:24:38.017Z,8.37
2022-12-04T05:27:06.211Z,8.30
2022-12-04T05:29:36.064Z,8.70
2022-12-04T05:32:04.552Z,8.30
2022-12-04T05:34:33.071Z,8.73
2022-12-04T05:37:01.362Z,8.43
2022-12-04T05:39:31.026Z,7.75
2022-12-04T05:41:59.175Z,8.93
2022-12-04T05:44:27.498Z,8.20
2022-12-04T05:46:55.803Z,9.80
2022-12-04T05:49:24.418Z,8.88
2022-12-04T05:51:52.954Z,8.52
2022-12-04T05:54:21.217Z,8.53
2022-12-04T05:56:50.787Z,9.10
2022-12-04T05:59:19.230Z,8.77
2022-12-04T06:01:47.519Z,8.73
2022-12-04T06:04:15.747Z,8.70
2022-12-04T06:06:44.061Z,8.17
2022-12-04T06:09:13.083Z,8.65
2022-12-04T06:11:42.739Z,8.37
2022-12-04T06:14:14.740Z,9.10
2022-12-04T06:16:45.273Z,8.40
2022-12-04T06:19:15.454Z,8.43
2022-12-04T06:21:45.758Z,8.10
2022-12-04T06:24:15.399Z,7.93
2022-12-04T06:27:03.900Z,7.72
2022-12-04T06:29:33.445Z,7.82
2022-12-04T06:32:02.054Z,6.77
2022-12-04T06:34:33.631Z,7.10
2022-12-04T06:37:01.794Z,7.65
2022-12-04T06:39:30.068Z,8.00
2022-12-04T06:41:58.293Z,7.77
2022-12-04T06:44:26.478Z,7.23
2022-12-04T06:46:56.098Z,7.23
2022-12-04T06:49:25.710Z,7.30
2022-12-04T06:51:53.991Z,7.80
2022-12-04T06:54:22.190Z,8.00
2022-12-04T06:56:51.424Z,6.90
2022-12-04T06:59:19.608Z,7.40
2022-12-04T07:01:47.802Z,7.67
2022-12-04T07:04:17.440Z,8.30
2022-12-04T07:06:45.613Z,7.00
2022-12-04T07:09:17.718Z,6.80
2022-12-04T07:11:46.718Z,6.82
2022-12-04T07:14:15.652Z,7.20
2022-12-04T07:16:44.233Z,7.30
2022-12-04T07:19:14.444Z,7.93
2022-12-04T07:21:44.662Z,7.70
2022-12-04T07:24:16.563Z,7.40
2022-12-04T07:26:45.049Z,7.10
2022-12-04T07:29:13.484Z,7.15
2022-12-04T07:31:41.863Z,7.30
2022-12-04T07:34:10.098Z,7.50
2022-12-04T07:36:40.816Z,7.90
2022-12-04T07:39:10.456Z,7.50
2022-12-04T07:41:38.662Z,7.22
2022-12-04T07:44:09.171Z,6.68
2022-12-04T07:46:37.364Z,7.00
2022-12-04T07:49:05.577Z,7.90
2022-12-04T07:51:33.769Z,8.75
2022-12-04T07:54:04.373Z,8.80
2022-12-04T07:56:34.696Z,8.13
2022-12-04T07:59:03.781Z,7.60
2022-12-04T08:01:32.832Z,9.05
2022-12-04T08:04:03.384Z,9.65
2022-12-04T08:06:34.863Z,9.05
2022-12-04T08:09:09.155Z,7.40
2022-12-04T08:11:39.745Z,8.07
2022-12-04T08:14:09.723Z,10.60
2022-12-04T08:16:38.060Z,9.32
2022-12-04T08:19:06.398Z,10.93
2022-12-04T08:21:35.061Z,7.63
2022-12-04T08:24:03.663Z,8.23
2022-12-04T08:26:33.575Z,7.82
2022-12-04T08:29:04.436Z,9.23
2022-12-04T08:31:34.464Z,9.07
2022-12-04T08:34:05.689Z,8.48
2022-12-04T08:36:34.941Z,9.88
2022-12-04T08:39:03.167Z,8.03
2022-12-04T08:41:31.336Z,8.07
2022-12-04T08:44:00.411Z,8.80
2022-12-04T08:46:32.081Z,7.82
2022-12-04T08:49:00.421Z,7.95
2022-12-04T08:51:30.863Z,8.90
2022-12-04T08:54:01.372Z,8.18
2022-12-04T08:56:31.412Z,10.65
2022-12-04T08:59:00.199Z,8.60
2022-12-04T09:01:29.636Z,9.48
2022-12-04T09:03:59.330Z,7.30
2022-12-04T09:06:27.940Z,8.60
2022-12-04T09:08:57.065Z,10.20
2022-12-04T09:11:27.656Z,7.90
2022-12-04T09:13:56.318Z,11.55
2022-12-04T09:16:26.339Z,8.25
2022-12-04T09:18:55.290Z,8.63
2022-12-04T09:21:26.127Z,9.02
2022-12-04T09:23:54.350Z,8.43
2022-12-04T09:26:25.472Z,9.03
2022-12-04T09:28:54.638Z,9.30
2022-12-04T09:31:24.592Z,9.50
2022-12-04T09:33:53.617Z,12.80
2022-12-04T09:36:22.110Z,8.73
2022-12-04T09:38:53.802Z,7.95
2022-12-04T09:41:41.275Z,7.82
2022-12-04T09:44:16.566Z,8.90
2022-12-04T09:46:51.382Z,8.05
2022-12-04T09:49:24.562Z,9.27
2022-12-04T09:51:55.427Z,8.55
2022-12-04T09:54:29.842Z,8.73
2022-12-04T09:57:04.144Z,7.38
2022-12-04T09:59:33.864Z,7.90
2022-12-04T10:02:20.827Z,8.15
2022-12-04T10:04:49.104Z,7.97
2022-12-04T10:07:21.126Z,7.90
2022-12-04T10:09:56.666Z,6.43
2022-12-04T10:12:33.228Z,7.07
2022-12-04T10:15:28.477Z,7.10
2022-12-04T10:18:17.593Z,7.47
2022-12-04T10:21:02.598Z,7.50
2022-12-04T10:23:43.957Z,7.72
2022-12-04T10:26:18.114Z,8.73
2022-12-04T10:28:55.047Z,9.18
2022-12-04T10:31:25.907Z,15.13
2022-12-04T10:33:56.783Z,7.80
2022-12-04T10:36:29.251Z,7.75
2022-12-04T10:39:00.085Z,9.82
2022-12-04T10:41:36.094Z,8.00
2022-12-04T10:44:04.823Z,7.80
2022-12-04T10:46:35.369Z,8.38
2022-12-04T10:49:06.762Z,7.03
2022-12-04T10:51:40.755Z,7.35
2022-12-04T10:54:19.585Z,7.10
2022-12-04T10:56:57.721Z,6.80
2022-12-04T10:59:26.919Z,7.57
2022-12-04T11:02:06.306Z,7.15
2022-12-04T11:04:36.318Z,7.30
2022-12-04T11:07:07.710Z,6.97
2022-12-04T11:09:36.923Z,6.47
2022-12-04T11:12:18.910Z,7.15
2022-12-04T11:14:47.538Z,6.73
2022-12-04T11:17:19.045Z,7.20
2022-12-04T11:19:47.465Z,5.78
2022-12-04T11:22:18.872Z,6.20
2022-12-04T11:24:53.030Z,6.78
2022-12-04T11:27:28.344Z,6.72
2022-12-04T11:29:57.688Z,5.97
2022-12-04T11:32:30.123Z,6.45
2022-12-04T11:35:02.039Z,7.70
2022-12-04T11:37:34.818Z,6.55
2022-12-04T11:40:06.696Z,7.20
2022-12-04T11:42:36.476Z,7.15
2022-12-04T11:45:19.822Z,7.65
2022-12-04T11:47:55.956Z,6.78
2022-12-04T11:50:31.582Z,6.70
2022-12-04T11:53:12.280Z,6.93
2022-12-04T11:55:50.334Z,6.45
2022-12-04T11:58:44.966Z,6.78
2022-12-04T12:01:26.251Z,6.13
2022-12-04T12:04:09.281Z,7.40
2022-12-04T12:06:38.899Z,7.00
2022-12-04T12:09:27.066Z,6.40
2022-12-04T12:12:01.398Z,5.90
2022-12-04T12:14:41.101Z,6.45
2022-12-04T12:17:17.577Z,6.38
2022-12-04T12:20:22.573Z,6.18
2022-12-04T12:23:09.621Z,6.05
2022-12-04T12:25:51.953Z,6.68
2022-12-04T12:28:34.707Z,5.90
2022-12-04T12:31:25.138Z,8.07
2022-12-04T12:33:57.799Z,5.80
2022-12-04T12:36:30.926Z,8.40
2022-12-04T12:39:05.074Z,6.32
2022-12-04T12:41:37.075Z,6.72
2022-12-04T12:44:11.648Z,6.95
2022-12-04T12:46:49.843Z,5.53
2022-12-04T12:49:22.314Z,5.82
2022-12-04T12:51:55.870Z,5.40
2022-12-04T12:54:34.506Z,5.80
2022-12-04T12:57:07.901Z,6.22
2022-12-04T12:59:39.475Z,6.00
2022-12-04T13:02:17.999Z,5.95
2022-12-04T13:04:51.235Z,6.28
2022-12-04T13:07:28.854Z,6.82
2022-12-04T13:10:04.893Z,6.30
2022-12-04T13:12:45.165Z,7.47
2022-12-04T13:15:17.304Z,6.70
2022-12-04T13:17:49.176Z,6.57
2022-12-04T13:20:22.631Z,6.65
2022-12-04T13:23:01.690Z,6.10
2022-12-04T13:25:42.894Z,7.30
2022-12-04T13:28:22.394Z,6.80
2022-12-04T13:30:56.946Z,7.28
2022-12-04T13:33:44.764Z,6.90
2022-12-04T13:36:45.765Z,7.22
2022-12-04T13:39:52.304Z,8.30
2022-12-04T13:42:24.969Z,7.80
2022-12-04T13:44:59.158Z,8.10
2022-12-04T13:47:29.692Z,6.90
2022-12-04T13:50:27.043Z,8.30
2022-12-04T13:52:55.670Z,7.10
2022-12-04T13:55:31.076Z,7.65
2022-12-04T13:58:01.283Z,7.60
2022-12-04T14:00:32.605Z,7.60
2022-12-04T14:03:05.230Z,7.17
2022-12-04T14:05:42.830Z,7.68
2022-12-04T14:08:25.225Z,7.03
2022-12-04T14:11:03.521Z,7.65
2022-12-04T14:13:44.236Z,8.18
2022-12-04T14:16:24.029Z,8.40
2022-12-04T14:18:55.045Z,9.90
2022-12-04T14:21:25.478Z,7.63
2022-12-04T14:23:55.584Z,8.05
2022-12-04T14:26:49.017Z,8.95
2022-12-04T14:29:36.262Z,8.82
2022-12-04T14:32:10.771Z,9.27
2022-12-04T14:34:39.753Z,9.27
2022-12-04T14:37:23.072Z,9.13
2022-12-04T14:39:52.478Z,10.25
2022-12-04T14:42:26.609Z,11.43
2022-12-04T14:44:58.157Z,10.50
2022-12-04T14:47:43.980Z,9.93
2022-12-04T14:50:30.349Z,9.45
2022-12-04T14:53:11.894Z,10.18
2022-12-04T14:55:52.200Z,10.15
2022-12-04T14:58:31.022Z,9.98
2022-12-04T15:01:01.892Z,10.73
2022-12-04T15:03:35.090Z,10.27
2022-12-04T15:06:06.122Z,10.13
2022-12-04T15:08:36.258Z,11.25
2022-12-04T15:11:25.420Z,10.88
2022-12-04T15:13:53.831Z,10.45
2022-12-04T15:16:24.063Z,10.57
2022-12-04T15:18:56.369Z,9.95
2022-12-04T15:21:25.940Z,10.52
2022-12-04T15:23:55.611Z,10.32
2022-12-04T15:26:26.865Z,10.15
2022-12-04T15:28:58.025Z,10.45
2022-12-04T15:31:29.323Z,10.18
2022-12-04T15:34:01.749Z,10.10
2022-12-04T15:36:44.519Z,10.30
2022-12-04T15:39:19.610Z,10.07
2022-12-04T15:41:48.173Z,10.50
2022-12-04T15:44:29.239Z,9.05
2022-12-04T15:46:59.794Z,10.10
2022-12-04T15:49:29.664Z,9.60
2022-12-04T15:52:07.005Z,9.90
2022-12-04T15:54:37.597Z,9.95
2022-12-04T15:57:07.919Z,9.60
2022-12-04T15:59:37.008Z,9.73
2022-12-04T16:02:10.022Z,11.00
2022-12-04T16:04:44.012Z,10.77
2022-12-04T16:07:22.694Z,11.48
2022-12-04T16:10:02.836Z,10.70
2022-12-04T16:12:32.958Z,10.73
2022-12-04T16:15:01.261Z,11.10
2022-12-04T16:17:32.535Z,11.15
2022-12-04T16:20:01.775Z,10.63
2022-12-04T16:22:31.605Z,10.82
2022-12-04T16:25:01.196Z,10.95
2022-12-04T16:27:29.512Z,12.32
2022-12-04T16:29:57.716Z,10.77
2022-12-04T16:32:29.726Z,11.63
2022-12-04T16:34:58.267Z,12.10
2022-12-04T16:37:27.885Z,11.18
2022-12-04T16:39:56.275Z,10.82
2022-12-04T16:42:28.757Z,12.30
2022-12-04T16:44:57.377Z,11.15
2022-12-04T16:47:25.808Z,11.30
2022-12-04T16:49:54.489Z,10.77
2022-12-04T16:52:23.022Z,10.63
2022-12-04T16:54:51.196Z,11.25
2022-12-04T16:57:19.582Z,11.98
2022-12-04T16:59:49.112Z,11.35
2022-12-04T17:02:28.408Z,10.70
2022-12-04T17:04:58.059Z,12.63
2022-12-04T17:07:26.592Z,12.13
2022-12-04T17:09:55.718Z,11.38
2022-12-04T17:12:24.171Z,12.55
2022-12-04T17:14:53.972Z,13.27
2022-12-04T17:17:22.381Z,13.52
2022-12-04T17:19:50.517Z,12.35
2022-12-04T17:22:21.107Z,12.63
2022-12-04T17:24:55.725Z,12.23
2022-12-04T17:27:24.590Z,12.87
2022-12-04T17:29:54.465Z,12.60
2022-12-04T17:32:22.798Z,12.73
2022-12-04T17:34:53.554Z,13.52
2022-12-04T17:37:22.255Z,12.50
2022-12-04T17:39:50.487Z,12.88
2022-12-04T17:42:18.684Z,12.45
2022-12-04T17:44:47.259Z,12.75
2022-12-04T17:47:16.901Z,12.55
2022-12-04T17:49:45.335Z,13.20
2022-12-04T17:52:13.868Z,13.00
2022-12-04T17:54:42.019Z,12.18
2022-12-04T17:57:10.351Z,11.30
2022-12-04T17:59:38.580Z,11.75
2022-12-04T18:02:07.084Z,12.70
2022-12-04T18:04:36.957Z,12.40
2022-12-04T18:07:05.626Z,12.20
2022-12-04T18:09:34.211Z,12.32
2022-12-04T18:12:02.619Z,13.60
2022-12-04T18:14:32.480Z,14.02
2022-12-04T18:17:01.383Z,12.85
2022-12-04T18:19:31.198Z,14.82
2022-12-04T18:22:01.311Z,14.77
2022-12-04T18:24:29.622Z,14.15
2022-12-04T18:26:57.935Z,14.38
2022-12-04T18:29:27.257Z,14.25
2022-12-04T18:31:55.959Z,14.13
2022-12-04T18:34:24.388Z,13.20
2022-12-04T18:36:52.805Z,13.77
2022-12-04T18:39:24.247Z,13.38
2022-12-04T18:41:55.482Z,13.98
2022-12-04T18:44:24.040Z,14.13
2022-12-04T18:46:53.129Z,13.73
2022-12-04T18:49:21.397Z,14.27
2022-12-04T18:51:50.486Z,13.65
2022-12-04T18:54:21.172Z,14.68
2022-12-04T18:56:52.123Z,14.30
2022-12-04T18:59:21.847Z,13.60
2022-12-04T19:01:50.903Z,12.75
2022-12-04T19:04:21.050Z,12.60
2022-12-04T19:06:52.229Z,12.43
2022-12-04T19:09:40.670Z,11.60
2022-12-04T19:12:13.509Z,11.30
2022-12-04T19:14:42.025Z,13.05
2022-12-04T19:17:11.327Z,12.18
2022-12-04T19:19:39.491Z,11.63
2022-12-04T19:22:07.824Z,11.52
2022-12-04T19:24:36.012Z,11.25
2022-12-04T19:27:11.013Z,12.23
2022-12-04T19:29:41.802Z,11.45
2022-12-04T19:32:11.438Z,11.95
2022-12-04T19:34:39.941Z,11.57
2022-12-04T19:37:08.182Z,11.32
2022-12-04T19:39:36.571Z,10.48
2022-12-04T19:42:04.989Z,10.95
2022-12-04T19:44:48.461Z,10.30
2022-12-04T19:47:19.495Z,11.00
2022-12-04T19:49:47.897Z,10.32
2022-12-04T19:52:16.755Z,11.00
2022-12-04T19:54:45.424Z,10.98
2022-12-04T19:57:14.739Z,11.10
2022-12-04T19:59:46.303Z,11.63
2022-12-04T20:02:27.138Z,11.93
2022-12-04T20:04:55.375Z,10.90
2022-12-04T20:07:23.542Z,10.63
2022-12-04T20:09:52.777Z,10.47
2022-12-04T20:12:21.164Z,10.68
2022-12-04T20:14:49.401Z,10.32
2022-12-04T20:17:17.646Z,10.45
2022-12-04T20:19:47.442Z,10.43
2022-12-04T20:22:15.578Z,10.87
2022-12-04T20:24:44.165Z,10.77
2022-12-04T20:27:12.405Z,11.43
2022-12-04T20:29:40.645Z,11.43
2022-12-04T20:32:09.102Z,10.55
2022-12-04T20:34:43.044Z,11.20
2022-12-04T20:37:14.143Z,10.60
2022-12-04T20:39:42.898Z,10.55
2022-12-04T20:42:11.359Z,11.50
2022-12-04T20:44:39.555Z,11.15
2022-12-04T20:47:07.890Z,10.68
2022-12-04T20:49:36.153Z,11.20
2022-12-04T20:52:04.932Z,11.05
2022-12-04T20:54:41.112Z,10.80
2022-12-04T20:57:10.278Z,11.68
2022-12-04T20:59:38.541Z,10.90
2022-12-04T21:02:06.758Z,10.95
2022-12-04T21:04:37.761Z,11.70
2022-12-04T21:07:06.048Z,10.90
2022-12-04T21:09:35.607Z,11.20
2022-12-04T21:12:24.293Z,11.00
2022-12-04T21:15:09.668Z,10.30
2022-12-04T21:17:38.234Z,10.77
2022-12-04T21:20:09.758Z,11.20
2022-12-04T21:22:38.475Z,9.95
2022-12-04T21:25:10.203Z,9.63
2022-12-04T21:27:38.435Z,10.10
2022-12-04T21:30:08.057Z,10.23
2022-12-04T21:32:36.344Z,9.65
2022-12-04T21:35:04.901Z,10.55
2022-12-04T21:37:33.475Z,10.20
2022-12-04T21:40:02.221Z,10.20
2022-12-04T21:42:31.892Z,9.73
2022-12-04T21:45:00.695Z,11.25
2022-12-04T21:47:29.327Z,10.77
2022-12-04T21:49:57.969Z,10.10
2022-12-04T21:52:28.065Z,10.23
2022-12-04T21:54:56.716Z,10.77
2022-12-04T21:57:25.579Z,10.30
2022-12-04T21:59:55.396Z,9.75
2022-12-04T22:02:23.899Z,10.15
2022-12-04T22:04:52.129Z,9.30
2022-12-04T22:07:20.318Z,9.80
2022-12-04T22:09:48.474Z,10.13
2022-12-04T22:15:07.469Z,9.75
2022-12-04T22:17:35.819Z,9.70
2022-12-04T22:20:04.230Z,9.88
2022-12-04T22:22:32.451Z,10.80
2022-12-04T22:25:01.770Z,9.45
2022-12-04T22:27:30.110Z,9.23
2022-12-04T22:29:58.572Z,10.27
2022-12-04T22:32:28.098Z,10.23
2022-12-04T22:34:56.392Z,9.70
2022-12-04T22:37:25.404Z,10.07
2022-12-04T22:39:53.590Z,9.88
2022-12-04T22:42:21.796Z,9.48
2022-12-04T22:44:49.996Z,9.68
2022-12-04T22:47:18.195Z,10.13
2022-12-04T22:49:47.783Z,9.32
2022-12-04T22:52:16.012Z,8.93
2022-12-04T22:54:44.666Z,9.07
2022-12-04T22:57:12.906Z,9.88
2022-12-04T22:59:41.108Z,8.95
2022-12-04T23:02:09.321Z,9.32
2022-12-04T23:04:37.552Z,9.48
2022-12-04T23:07:07.390Z,9.57
2022-12-04T23:09:36.234Z,9.50
2022-12-04T23:12:04.850Z,9.23
2022-12-04T23:14:35.695Z,9.57
2022-12-04T23:17:04.152Z,10.10
2022-12-04T23:19:32.614Z,9.32
2022-12-04T23:22:00.856Z,9.90
2022-12-04T23:24:30.552Z,9.82
2022-12-04T23:26:58.699Z,9.63
2022-12-04T23:29:52.132Z,9.60
2022-12-04T23:32:15.101Z,9.27
2022-12-04T23:34:43.333Z,11.15
2022-12-04T23:37:11.635Z,10.95
2022-12-04T23:39:41.189Z,10.23
2022-12-04T23:42:09.420Z,10.10
2022-12-04T23:44:37.618Z,9.23
2022-12-04T23:47:06.235Z,9.37
2022-12-04T23:49:34.843Z,10.45
2022-12-04T23:52:03.114Z,10.07
2022-12-04T23:54:34.998Z,9.60
2022-12-04T23:57:04.636Z,10.30
2022-12-04T23:59:32.836Z,10.20
